createdAt,value
2016-07-15T00:00:20.585Z,1012.59
2016-07-15T00:01:20.553Z,1012.62
2016-07-15T00:02:20.531Z,1012.64
2016-07-15T00:03:20.508Z,1012.64
2016-07-15T00:04:20.487Z,1012.59
2016-07-15T00:05:20.466Z,1012.62
2016-07-15T00:06:20.444Z,1012.62
2016-07-15T00:07:20.421Z,1012.59
2016-07-15T00:08:20.400Z,1012.56
2016-07-15T00:09:20.378Z,1012.57
2016-07-15T00:10:20.356Z,1012.59
2016-07-15T00:11:20.334Z,1012.61
2016-07-15T00:12:20.312Z,1012.64
2016-07-15T00:13:20.290Z,1012.58
2016-07-15T00:14:20.269Z,1012.71
2016-07-15T00:15:20.246Z,1012.65
2016-07-15T00:16:20.225Z,1012.67
2016-07-15T00:17:20.204Z,1012.64
2016-07-15T00:18:20.182Z,1012.64
2016-07-15T00:19:20.160Z,1012.64
2016-07-15T00:20:20.138Z,1012.61
2016-07-15T00:21:20.117Z,1012.66
2016-07-15T00:22:20.095Z,1012.58
2016-07-15T00:23:20.072Z,1012.67
2016-07-15T00:24:20.050Z,1012.66
2016-07-15T00:25:20.028Z,1012.67
2016-07-15T00:26:20.007Z,1012.67
2016-07-15T00:27:19.984Z,1012.65
2016-07-15T00:28:19.962Z,1012.71
2016-07-15T00:29:19.941Z,1012.69
2016-07-15T00:30:19.920Z,1012.77
2016-07-15T00:31:19.898Z,1012.75
2016-07-15T00:32:19.875Z,1012.77
2016-07-15T00:33:19.855Z,1012.8
2016-07-15T00:34:19.831Z,1012.75
2016-07-15T00:35:19.810Z,1012.81
2016-07-15T00:36:19.788Z,1012.81
2016-07-15T00:37:19.766Z,1012.84
2016-07-15T00:38:19.745Z,1012.72
2016-07-15T00:39:19.722Z,1012.72
2016-07-15T00:40:19.701Z,1012.75
2016-07-15T00:41:19.679Z,1012.74
2016-07-15T00:42:19.656Z,1012.81
2016-07-15T00:43:19.634Z,1012.73
2016-07-15T00:44:19.613Z,1012.8
2016-07-15T00:45:19.590Z,1012.78
2016-07-15T00:46:19.568Z,1012.82
2016-07-15T00:47:19.546Z,1012.8
2016-07-15T00:48:19.524Z,1012.95
2016-07-15T00:49:19.503Z,1012.88
2016-07-15T00:50:19.480Z,1012.9
2016-07-15T00:51:19.458Z,1012.89
2016-07-15T00:52:19.437Z,1012.92
2016-07-15T00:53:19.415Z,1012.84
2016-07-15T00:54:19.395Z,1012.87
2016-07-15T00:55:19.373Z,1012.93
2016-07-15T00:56:19.348Z,1012.88
2016-07-15T00:57:19.328Z,1012.91
2016-07-15T00:58:19.305Z,1012.89
2016-07-15T00:59:19.285Z,1012.88
2016-07-15T01:00:19.262Z,1012.82
2016-07-15T01:01:19.239Z,1012.82
2016-07-15T01:02:19.218Z,1012.96
2016-07-15T01:03:19.195Z,1012.94
2016-07-15T01:04:19.174Z,1012.92
2016-07-15T01:05:19.151Z,1012.96
2016-07-15T01:06:19.128Z,1012.95
2016-07-15T01:07:19.106Z,1012.99
2016-07-15T01:08:19.085Z,1012.93
2016-07-15T01:09:19.062Z,1012.97
2016-07-15T01:10:19.042Z,1012.92
2016-07-15T01:11:19.018Z,1012.96
2016-07-15T01:12:18.995Z,1012.88
2016-07-15T01:13:18.975Z,1012.95
2016-07-15T01:14:18.956Z,1012.99
2016-07-15T01:15:18.931Z,1012.94
2016-07-15T01:16:18.908Z,1012.98
2016-07-15T01:17:18.886Z,1012.97
2016-07-15T01:18:18.865Z,1012.97
2016-07-15T01:19:18.841Z,1012.92
2016-07-15T01:20:18.819Z,1012.88
2016-07-15T01:21:18.799Z,1012.93
2016-07-15T01:22:18.775Z,1012.93
2016-07-15T01:23:18.753Z,1012.84
2016-07-15T01:24:18.733Z,1012.9
2016-07-15T01:25:18.709Z,1012.81
2016-07-15T01:26:18.694Z,1012.83
2016-07-15T01:27:18.666Z,1012.82
2016-07-15T01:28:18.644Z,1012.81
2016-07-15T01:29:18.621Z,1012.84
2016-07-15T01:30:18.600Z,1012.88
2016-07-15T01:31:18.577Z,1012.96
2016-07-15T01:32:18.556Z,1012.92
2016-07-15T01:33:18.533Z,1012.86
2016-07-15T01:34:18.510Z,1012.89
2016-07-15T01:35:18.490Z,1012.91
2016-07-15T01:36:18.467Z,1012.95
2016-07-15T01:37:18.443Z,1012.91
2016-07-15T01:38:18.422Z,1012.92
2016-07-15T01:39:18.400Z,1012.89
2016-07-15T01:40:18.379Z,1012.86
2016-07-15T01:41:18.357Z,1012.96
2016-07-15T01:42:18.336Z,1012.89
2016-07-15T01:43:18.313Z,1012.92
2016-07-15T01:44:18.289Z,1012.86
2016-07-15T01:45:18.267Z,1012.83
2016-07-15T01:46:18.246Z,1012.85
2016-07-15T01:47:18.224Z,1012.82
2016-07-15T01:48:18.201Z,1012.87
2016-07-15T01:49:18.180Z,1012.84
2016-07-15T01:50:18.159Z,1012.82
2016-07-15T01:51:18.135Z,1012.84
2016-07-15T01:52:18.114Z,1012.81
2016-07-15T01:53:18.091Z,1012.85
2016-07-15T01:54:18.071Z,1012.87
2016-07-15T01:55:18.047Z,1012.87
2016-07-15T01:56:18.025Z,1012.88
2016-07-15T01:57:18.003Z,1012.93
2016-07-15T01:58:17.981Z,1012.86
2016-07-15T01:59:17.960Z,1012.87
2016-07-15T02:00:17.938Z,1012.87
2016-07-15T02:01:17.915Z,1012.84
2016-07-15T02:02:17.893Z,1012.89
2016-07-15T02:03:17.870Z,1012.89
2016-07-15T02:04:17.855Z,1012.89
2016-07-15T02:05:17.827Z,1012.96
2016-07-15T02:06:17.803Z,1012.92
2016-07-15T02:07:17.782Z,1012.89
2016-07-15T02:08:17.761Z,1012.91
2016-07-15T02:09:17.738Z,1012.93
2016-07-15T02:10:17.716Z,1012.89
2016-07-15T02:11:17.694Z,1012.85
2016-07-15T02:12:17.672Z,1012.87
2016-07-15T02:13:17.648Z,1012.86
2016-07-15T02:14:17.626Z,1012.86
2016-07-15T02:15:17.606Z,1012.84
2016-07-15T02:16:17.584Z,1012.8
2016-07-15T02:17:17.562Z,1012.88
2016-07-15T02:18:17.538Z,1012.9
2016-07-15T02:19:17.518Z,1012.82
2016-07-15T02:20:17.494Z,1012.87
2016-07-15T02:21:17.472Z,1012.88
2016-07-15T02:22:17.450Z,1012.87
2016-07-15T02:23:17.429Z,1012.84
2016-07-15T02:24:17.409Z,1012.83
2016-07-15T02:25:17.383Z,1012.84
2016-07-15T02:26:17.362Z,1012.9
2016-07-15T02:27:17.340Z,1012.89
2016-07-15T02:28:17.318Z,1012.92
2016-07-15T02:29:17.296Z,1012.86
2016-07-15T02:30:17.274Z,1012.89
2016-07-15T02:31:17.252Z,1012.95
2016-07-15T02:32:17.229Z,1012.98
2016-07-15T02:33:17.207Z,1012.98
2016-07-15T02:34:17.186Z,1012.96
2016-07-15T02:35:17.163Z,1013.05
2016-07-15T02:36:17.142Z,1013
2016-07-15T02:37:17.120Z,1012.98
2016-07-15T02:38:17.095Z,1012.98
2016-07-15T02:39:17.075Z,1012.95
2016-07-15T02:40:17.051Z,1012.93
2016-07-15T02:41:17.030Z,1012.98
2016-07-15T02:42:17.007Z,1013.01
2016-07-15T02:43:16.984Z,1012.92
2016-07-15T02:44:16.964Z,1012.95
2016-07-15T02:45:16.941Z,1012.94
2016-07-15T02:46:16.918Z,1012.96
2016-07-15T02:47:16.897Z,1012.94
2016-07-15T02:48:16.874Z,1012.94
2016-07-15T02:49:16.850Z,1012.96
2016-07-15T02:50:16.829Z,1012.95
2016-07-15T02:51:16.806Z,1012.9
2016-07-15T02:52:16.786Z,1012.86
2016-07-15T02:53:16.762Z,1012.88
2016-07-15T02:54:16.741Z,1012.88
2016-07-15T02:55:16.718Z,1012.89
2016-07-15T02:56:16.697Z,1012.94
2016-07-15T02:57:16.672Z,1012.85
2016-07-15T02:58:16.652Z,1012.87
2016-07-15T02:59:16.630Z,1012.9
2016-07-15T03:00:16.605Z,1012.87
2016-07-15T03:01:16.585Z,1012.87
2016-07-15T03:02:16.561Z,1012.9
2016-07-15T03:03:16.540Z,1012.9
2016-07-15T03:04:16.517Z,1012.92
2016-07-15T03:05:16.495Z,1012.91
2016-07-15T03:06:16.479Z,1012.95
2016-07-15T03:07:16.451Z,1012.95
2016-07-15T03:08:16.429Z,1012.95
2016-07-15T03:09:16.407Z,1012.96
2016-07-15T03:10:16.383Z,1012.95
2016-07-15T03:11:16.360Z,1012.97
2016-07-15T03:12:16.338Z,1012.98
2016-07-15T03:13:16.317Z,1012.95
2016-07-15T03:14:16.294Z,1012.97
2016-07-15T03:15:16.271Z,1012.93
2016-07-15T03:16:16.250Z,1012.95
2016-07-15T03:17:16.227Z,1012.99
2016-07-15T03:18:16.210Z,1012.98
2016-07-15T03:19:16.184Z,1012.96
2016-07-15T03:20:16.162Z,1012.97
2016-07-15T03:21:16.139Z,1012.98
2016-07-15T03:22:16.116Z,1012.99
2016-07-15T03:23:16.094Z,1012.98
2016-07-15T03:24:16.072Z,1012.99
2016-07-15T03:25:16.050Z,1012.98
2016-07-15T03:26:16.028Z,1013
2016-07-15T03:27:16.004Z,1012.98
2016-07-15T03:28:15.983Z,1012.99
2016-07-15T03:29:15.961Z,1012.96
2016-07-15T03:30:15.939Z,1013.01
2016-07-15T03:31:15.916Z,1013.02
2016-07-15T03:32:15.895Z,1012.99
2016-07-15T03:33:15.871Z,1013.04
2016-07-15T03:34:15.849Z,1013.08
2016-07-15T03:35:15.827Z,1013.04
2016-07-15T03:36:15.805Z,1013.03
2016-07-15T03:37:15.782Z,1013.07
2016-07-15T03:38:15.760Z,1013.03
2016-07-15T03:39:15.739Z,1013.04
2016-07-15T03:40:15.716Z,1013.03
2016-07-15T03:41:15.693Z,1013.06
2016-07-15T03:42:15.670Z,1013.05
2016-07-15T03:43:15.648Z,1013.08
2016-07-15T03:44:15.624Z,1013.11
2016-07-15T03:45:15.603Z,1013.08
2016-07-15T03:46:15.582Z,1013.09
2016-07-15T03:47:15.558Z,1013.14
2016-07-15T03:48:15.536Z,1013.15
2016-07-15T03:49:15.515Z,1013.13
2016-07-15T03:50:15.491Z,1013.18
2016-07-15T03:51:15.470Z,1013.13
2016-07-15T03:52:15.447Z,1013.17
2016-07-15T03:53:15.425Z,1013.2
2016-07-15T03:54:15.404Z,1013.22
2016-07-15T03:55:15.380Z,1013.23
2016-07-15T03:56:15.357Z,1013.23
2016-07-15T03:57:15.335Z,1013.23
2016-07-15T03:58:15.314Z,1013.22
2016-07-15T03:59:15.291Z,1013.23
2016-07-15T04:00:15.268Z,1013.31
2016-07-15T04:01:15.246Z,1013.34
2016-07-15T04:02:15.223Z,1013.3
2016-07-15T04:03:15.201Z,1013.3
2016-07-15T04:04:15.181Z,1013.29
2016-07-15T04:05:15.158Z,1013.32
2016-07-15T04:06:15.136Z,1013.29
2016-07-15T04:07:15.114Z,1013.3
2016-07-15T04:08:15.091Z,1013.3
2016-07-15T04:09:15.070Z,1013.35
2016-07-15T04:10:15.048Z,1013.32
2016-07-15T04:11:15.075Z,1013.29
2016-07-15T04:12:15.004Z,1013.35
2016-07-15T04:13:14.979Z,1013.33
2016-07-15T04:14:14.958Z,1013.3
2016-07-15T04:15:14.937Z,1013.31
2016-07-15T04:16:14.913Z,1013.34
2016-07-15T04:17:14.891Z,1013.36
2016-07-15T04:18:14.870Z,1013.33
2016-07-15T04:19:14.848Z,1013.41
2016-07-15T04:20:14.826Z,1013.4
2016-07-15T04:21:14.802Z,1013.36
2016-07-15T04:22:14.781Z,1013.37
2016-07-15T04:23:14.758Z,1013.41
2016-07-15T04:24:14.735Z,1013.37
2016-07-15T04:25:14.713Z,1013.41
2016-07-15T04:26:14.692Z,1013.38
2016-07-15T04:27:14.669Z,1013.41
2016-07-15T04:28:14.649Z,1013.41
2016-07-15T04:29:14.626Z,1013.45
2016-07-15T04:30:14.605Z,1013.4
2016-07-15T04:31:14.584Z,1013.39
2016-07-15T04:32:14.560Z,1013.43
2016-07-15T04:33:14.539Z,1013.42
2016-07-15T04:34:14.517Z,1013.4
2016-07-15T04:35:14.493Z,1013.44
2016-07-15T04:36:14.472Z,1013.47
2016-07-15T04:37:14.449Z,1013.39
2016-07-15T04:38:14.428Z,1013.42
2016-07-15T04:39:14.405Z,1013.46
2016-07-15T04:40:14.383Z,1013.44
2016-07-15T04:41:14.363Z,1013.45
2016-07-15T04:42:14.341Z,1013.46
2016-07-15T04:43:14.316Z,1013.46
2016-07-15T04:44:14.296Z,1013.5
2016-07-15T04:45:14.275Z,1013.52
2016-07-15T04:46:14.252Z,1013.52
2016-07-15T04:47:14.233Z,1013.54
2016-07-15T04:48:14.208Z,1013.57
2016-07-15T04:49:14.186Z,1013.54
2016-07-15T04:50:14.165Z,1013.5
2016-07-15T04:51:14.143Z,1013.57
2016-07-15T04:52:14.121Z,1013.58
2016-07-15T04:53:14.101Z,1013.55
2016-07-15T04:54:14.079Z,1013.58
2016-07-15T04:55:14.059Z,1013.61
2016-07-15T04:56:14.036Z,1013.61
2016-07-15T04:57:14.013Z,1013.62
2016-07-15T04:58:13.999Z,1013.62
2016-07-15T04:59:13.969Z,1013.56
2016-07-15T05:00:13.952Z,1013.62
2016-07-15T05:01:13.926Z,1013.59
2016-07-15T05:02:13.904Z,1013.59
2016-07-15T05:03:13.884Z,1013.57
2016-07-15T05:04:13.862Z,1013.58
2016-07-15T05:05:13.839Z,1013.59
2016-07-15T05:06:13.819Z,1013.58
2016-07-15T05:07:13.798Z,1013.6
2016-07-15T05:08:13.776Z,1013.63
2016-07-15T05:09:13.755Z,1013.6
2016-07-15T05:10:13.734Z,1013.62
2016-07-15T05:11:13.714Z,1013.66
2016-07-15T05:12:13.692Z,1013.6
2016-07-15T05:13:13.670Z,1013.61
2016-07-15T05:14:13.650Z,1013.61
2016-07-15T05:15:13.628Z,1013.67
2016-07-15T05:16:13.606Z,1013.66
2016-07-15T05:17:13.585Z,1013.69
2016-07-15T05:18:13.563Z,1013.67
2016-07-15T05:19:13.542Z,1013.69
2016-07-15T05:20:13.522Z,1013.73
2016-07-15T05:21:13.500Z,1013.79
2016-07-15T05:22:13.480Z,1013.79
2016-07-15T05:23:13.459Z,1013.78
2016-07-15T05:24:13.438Z,1013.74
2016-07-15T05:25:13.416Z,1013.75
2016-07-15T05:26:13.396Z,1013.84
2016-07-15T05:27:13.375Z,1013.75
2016-07-15T05:28:13.355Z,1013.79
2016-07-15T05:29:13.333Z,1013.8
2016-07-15T05:30:13.313Z,1013.75
2016-07-15T05:31:13.290Z,1013.78
2016-07-15T05:32:13.271Z,1013.84
2016-07-15T05:33:13.249Z,1013.8
2016-07-15T05:34:13.229Z,1013.84
2016-07-15T05:35:13.208Z,1013.91
2016-07-15T05:36:13.188Z,1013.81
2016-07-15T05:37:13.167Z,1013.87
2016-07-15T05:38:13.145Z,1013.85
2016-07-15T05:39:13.126Z,1013.87
2016-07-15T05:40:13.105Z,1013.88
2016-07-15T05:41:13.084Z,1013.89
2016-07-15T05:42:13.063Z,1013.91
2016-07-15T05:43:13.043Z,1013.92
2016-07-15T05:44:13.024Z,1013.97
2016-07-15T05:45:13.004Z,1013.95
2016-07-15T05:46:12.983Z,1014
2016-07-15T05:47:12.961Z,1014.04
2016-07-15T05:48:12.940Z,1014.04
2016-07-15T05:49:12.924Z,1014.02
2016-07-15T05:50:12.899Z,1014.03
2016-07-15T05:51:12.881Z,1014.04
2016-07-15T05:52:12.857Z,1014.09
2016-07-15T05:53:12.838Z,1014.09
2016-07-15T05:54:12.815Z,1014.11
2016-07-15T05:55:12.796Z,1014.11
2016-07-15T05:56:12.774Z,1014.14
2016-07-15T05:57:12.759Z,1014.14
2016-07-15T05:58:12.733Z,1014.09
2016-07-15T05:59:12.712Z,1014.14
2016-07-15T06:00:12.691Z,1014.08
2016-07-15T06:01:12.670Z,1014.13
2016-07-15T06:02:12.651Z,1014.12
2016-07-15T06:03:12.629Z,1014.14
2016-07-15T06:04:12.608Z,1014.16
2016-07-15T06:05:12.592Z,1014.14
2016-07-15T06:06:12.567Z,1014.24
2016-07-15T06:07:12.546Z,1014.04
2016-07-15T06:08:12.525Z,1014.08
2016-07-15T06:09:12.506Z,1014.16
2016-07-15T06:10:12.483Z,1014.15
2016-07-15T06:11:12.464Z,1014.16
2016-07-15T06:12:12.443Z,1014.15
2016-07-15T06:13:12.424Z,1014.2
2016-07-15T06:14:12.401Z,1014.23
2016-07-15T06:15:12.382Z,1014.15
2016-07-15T06:16:12.361Z,1014.22
2016-07-15T06:17:12.341Z,1014.21
2016-07-15T06:18:12.320Z,1014.2
2016-07-15T06:19:12.301Z,1014.26
2016-07-15T06:20:12.280Z,1014.2
2016-07-15T06:21:12.259Z,1014.24
2016-07-15T06:22:12.241Z,1014.3
2016-07-15T06:23:12.219Z,1014.21
2016-07-15T06:24:12.201Z,1014.28
2016-07-15T06:25:12.181Z,1014.26
2016-07-15T06:26:12.161Z,1014.34
2016-07-15T06:27:12.142Z,1014.27
2016-07-15T06:28:12.125Z,1014.28
2016-07-15T06:29:12.105Z,1014.31
2016-07-15T06:30:12.085Z,1014.29
2016-07-15T06:31:12.080Z,1014.35
2016-07-15T06:32:12.047Z,1014.29
2016-07-15T06:33:12.028Z,1014.29
2016-07-15T06:34:12.011Z,1014.28
2016-07-15T06:35:11.994Z,1014.36
2016-07-15T06:36:11.975Z,1014.34
2016-07-15T06:37:11.956Z,1014.34
2016-07-15T06:38:11.939Z,1014.37
2016-07-15T06:39:11.921Z,1014.28
2016-07-15T06:40:11.904Z,1014.34
2016-07-15T06:41:11.886Z,1014.53
2016-07-15T06:42:11.870Z,1014.33
2016-07-15T06:43:11.852Z,1014.46
2016-07-15T06:44:11.840Z,1014.32
2016-07-15T06:45:11.820Z,1014.32
2016-07-15T06:46:11.834Z,1014.44
2016-07-15T06:47:11.788Z,1014.26
2016-07-15T06:48:11.823Z,1014.43
2016-07-15T06:49:11.749Z,1014.46
2016-07-15T06:50:11.762Z,1014.41
2016-07-15T06:51:11.763Z,1014.39
2016-07-15T06:52:11.698Z,1014.48
2016-07-15T06:53:11.679Z,1014.41
2016-07-15T06:54:11.665Z,1014.42
2016-07-15T06:55:11.656Z,1014.43
2016-07-15T06:56:11.662Z,1014.44
2016-07-15T06:57:11.695Z,1014.43
2016-07-15T06:58:11.606Z,1014.35
2016-07-15T06:59:11.676Z,1014.46
2016-07-15T07:00:11.603Z,1014.41
2016-07-15T07:01:11.539Z,1014.36
2016-07-15T07:02:11.540Z,1014.41
2016-07-15T07:03:11.504Z,1014.46
2016-07-15T07:04:11.487Z,1014.41
2016-07-15T07:05:11.468Z,1014.39
2016-07-15T07:06:11.448Z,1014.4
2016-07-15T07:07:11.431Z,1014.43
2016-07-15T07:08:11.415Z,1014.47
2016-07-15T07:09:11.395Z,1014.48
2016-07-15T07:10:11.378Z,1014.49
2016-07-15T07:11:11.362Z,1014.42
2016-07-15T07:12:11.344Z,1014.42
2016-07-15T07:13:11.326Z,1014.44
2016-07-15T07:14:11.309Z,1014.37
2016-07-15T07:15:11.293Z,1014.44
2016-07-15T07:16:11.275Z,1014.36
2016-07-15T07:17:11.258Z,1014.44
2016-07-15T07:18:11.240Z,1014.37
2016-07-15T07:19:11.223Z,1014.41
2016-07-15T07:20:11.206Z,1014.38
2016-07-15T07:21:11.189Z,1014.43
2016-07-15T07:22:11.174Z,1014.35
2016-07-15T07:23:11.168Z,1014.36
2016-07-15T07:24:11.150Z,1014.36
2016-07-15T07:25:11.125Z,1014.39
2016-07-15T07:26:11.106Z,1014.32
2016-07-15T07:27:11.088Z,1014.4
2016-07-15T07:28:11.072Z,1014.37
2016-07-15T07:29:11.057Z,1014.39
2016-07-15T07:30:11.041Z,1014.36
2016-07-15T07:31:11.022Z,1014.34
2016-07-15T07:32:11.007Z,1014.35
2016-07-15T07:33:10.991Z,1014.39
2016-07-15T07:34:10.975Z,1014.4
2016-07-15T07:35:10.959Z,1014.38
2016-07-15T07:36:10.943Z,1014.34
2016-07-15T07:37:10.927Z,1014.37
2016-07-15T07:38:10.911Z,1014.45
2016-07-15T07:39:10.895Z,1014.44
2016-07-15T07:40:10.878Z,1014.42
2016-07-15T07:41:10.861Z,1014.44
2016-07-15T07:42:10.845Z,1014.41
2016-07-15T07:43:10.828Z,1014.5
2016-07-15T07:44:10.811Z,1014.43
2016-07-15T07:45:10.795Z,1014.46
2016-07-15T07:46:10.779Z,1014.47
2016-07-15T07:47:10.762Z,1014.53
2016-07-15T07:48:10.745Z,1014.55
2016-07-15T07:49:10.729Z,1014.57
2016-07-15T07:50:10.713Z,1014.49
2016-07-15T07:51:10.696Z,1014.53
2016-07-15T07:52:10.680Z,1014.57
2016-07-15T07:53:10.665Z,1014.56
2016-07-15T07:54:10.648Z,1014.69
2016-07-15T07:55:10.633Z,1014.57
2016-07-15T07:56:10.616Z,1014.6
2016-07-15T07:57:10.601Z,1014.52
2016-07-15T07:58:10.587Z,1014.6
2016-07-15T07:59:10.594Z,1014.59
2016-07-15T08:00:10.557Z,1014.6
2016-07-15T08:01:10.542Z,1014.58
2016-07-15T08:02:10.530Z,1014.56
2016-07-15T08:03:10.515Z,1014.65
2016-07-15T08:04:10.501Z,1014.63
2016-07-15T08:05:10.487Z,1014.65
2016-07-15T08:06:10.474Z,1014.81
2016-07-15T08:07:10.458Z,1014.69
2016-07-15T08:08:10.446Z,1014.67
2016-07-15T08:09:10.431Z,1014.64
2016-07-15T08:10:10.418Z,1014.61
2016-07-15T08:11:10.403Z,1014.6
2016-07-15T08:12:10.390Z,1014.64
2016-07-15T08:13:10.377Z,1014.63
2016-07-15T08:14:10.419Z,1014.74
2016-07-15T08:15:10.349Z,1014.67
2016-07-15T08:16:10.337Z,1014.62
2016-07-15T08:17:10.324Z,1014.62
2016-07-15T08:18:10.311Z,1014.65
2016-07-15T08:19:10.298Z,1014.66
2016-07-15T08:20:10.394Z,1014.6
2016-07-15T08:21:10.273Z,1014.61
2016-07-15T08:22:10.311Z,1014.64
2016-07-15T08:23:10.263Z,1014.67
2016-07-15T08:24:10.235Z,1014.51
2016-07-15T08:25:10.222Z,1014.68
2016-07-15T08:26:10.263Z,1014.65
2016-07-15T08:27:10.196Z,1014.63
2016-07-15T08:28:10.184Z,1014.63
2016-07-15T08:29:10.190Z,1014.59
2016-07-15T08:30:10.157Z,1014.59
2016-07-15T08:31:10.146Z,1014.48
2016-07-15T08:32:10.131Z,1014.53
2016-07-15T08:33:10.118Z,1014.54
2016-07-15T08:34:10.125Z,1014.52
2016-07-15T08:35:10.094Z,1014.53
2016-07-15T08:36:10.083Z,1014.56
2016-07-15T08:37:10.071Z,1014.6
2016-07-15T08:38:10.059Z,1014.53
2016-07-15T08:39:10.050Z,1014.65
2016-07-15T08:40:10.209Z,1014.57
2016-07-15T08:41:10.024Z,1014.56
2016-07-15T08:42:10.012Z,1014.68
2016-07-15T08:43:10.002Z,1014.63
2016-07-15T08:44:09.988Z,1014.69
2016-07-15T08:45:10.021Z,1014.69
2016-07-15T08:46:09.962Z,1014.67
2016-07-15T08:47:09.949Z,1014.65
2016-07-15T08:48:09.936Z,1014.68
2016-07-15T08:49:09.923Z,1014.78
2016-07-15T08:50:09.911Z,1014.7
2016-07-15T08:51:09.897Z,1014.73
2016-07-15T08:52:09.884Z,1014.72
2016-07-15T08:53:09.873Z,1014.76
2016-07-15T08:54:09.860Z,1014.76
2016-07-15T08:55:09.846Z,1014.71
2016-07-15T08:56:09.835Z,1014.72
2016-07-15T08:57:09.823Z,1014.57
2016-07-15T08:58:09.836Z,1014.62
2016-07-15T08:59:09.846Z,1014.68
2016-07-15T09:00:09.789Z,1014.78
2016-07-15T09:01:09.778Z,1014.92
2016-07-15T09:02:09.768Z,1014.75
2016-07-15T09:03:09.777Z,1014.8
2016-07-15T09:04:09.743Z,1014.97
2016-07-15T09:05:09.731Z,1014.94
2016-07-15T09:06:09.718Z,1014.87
2016-07-15T09:07:09.717Z,1014.84
2016-07-15T09:08:09.706Z,1014.83
2016-07-15T09:09:09.679Z,1014.84
2016-07-15T09:10:09.679Z,1014.86
2016-07-15T09:11:09.656Z,1015.04
2016-07-15T09:12:09.642Z,1014.79
2016-07-15T09:13:09.631Z,1014.87
2016-07-15T09:14:09.618Z,1014.86
2016-07-15T09:15:09.659Z,1014.9
2016-07-15T09:16:09.600Z,1014.9
2016-07-15T09:17:09.579Z,1014.93
2016-07-15T09:18:09.567Z,1014.93
2016-07-15T09:19:09.609Z,1014.96
2016-07-15T09:20:09.541Z,1014.92
2016-07-15T09:21:09.529Z,1015.13
2016-07-15T09:22:09.522Z,1014.92
2016-07-15T09:23:09.505Z,1014.97
2016-07-15T09:24:09.491Z,1015.04
2016-07-15T09:25:09.481Z,1014.89
2016-07-15T09:26:09.493Z,1014.83
2016-07-15T09:27:09.458Z,1014.97
2016-07-15T09:28:09.489Z,1014.91
2016-07-15T09:29:09.437Z,1015.01
2016-07-15T09:30:09.425Z,1014.88
2016-07-15T09:31:09.451Z,1014.9
2016-07-15T09:32:09.402Z,1014.94
2016-07-15T09:33:09.391Z,1014.87
2016-07-15T09:34:09.380Z,1014.9
2016-07-15T09:35:09.410Z,1014.97
2016-07-15T09:36:09.358Z,1015.04
2016-07-15T09:37:09.343Z,1015
2016-07-15T09:38:09.392Z,1014.92
2016-07-15T09:39:09.319Z,1014.93
2016-07-15T09:40:09.305Z,1014.98
2016-07-15T09:41:09.300Z,1015.03
2016-07-15T09:42:09.279Z,1014.95
2016-07-15T09:43:09.274Z,1015.02
2016-07-15T09:44:09.254Z,1014.92
2016-07-15T09:45:09.244Z,1014.92
2016-07-15T09:46:09.228Z,1014.86
2016-07-15T09:47:09.225Z,1014.83
2016-07-15T09:48:09.203Z,1014.87
2016-07-15T09:49:09.195Z,1014.9
2016-07-15T09:50:09.175Z,1014.79
2016-07-15T09:51:09.225Z,1014.85
2016-07-15T09:52:09.150Z,1014.81
2016-07-15T09:53:09.135Z,1014.83
2016-07-15T09:54:09.122Z,1014.8
2016-07-15T09:55:09.110Z,1014.92
2016-07-15T09:56:09.096Z,1014.89
2016-07-15T09:57:09.082Z,1014.87
2016-07-15T09:58:09.072Z,1014.81
2016-07-15T09:59:09.058Z,1014.79
2016-07-15T10:00:09.047Z,1014.8
2016-07-15T10:01:09.039Z,1014.81
2016-07-15T10:02:09.024Z,1014.76
2016-07-15T10:03:09.014Z,1014.7
2016-07-15T10:04:09.003Z,1014.69
2016-07-15T10:05:08.990Z,1014.62
2016-07-15T10:06:08.981Z,1014.65
2016-07-15T10:07:08.971Z,1014.64
2016-07-15T10:08:08.960Z,1014.59
2016-07-15T10:09:08.951Z,1014.56
2016-07-15T10:10:08.943Z,1014.6
2016-07-15T10:11:08.933Z,1014.65
2016-07-15T10:12:08.922Z,1014.61
2016-07-15T10:13:08.911Z,1014.63
2016-07-15T10:14:08.903Z,1014.64
2016-07-15T10:15:08.892Z,1014.66
2016-07-15T10:16:08.883Z,1014.65
2016-07-15T10:17:08.874Z,1014.67
2016-07-15T10:18:08.864Z,1014.64
2016-07-15T10:19:08.854Z,1014.59
2016-07-15T10:20:08.846Z,1014.57
2016-07-15T10:21:08.836Z,1014.69
2016-07-15T10:22:08.825Z,1014.7
2016-07-15T10:23:08.816Z,1014.7
2016-07-15T10:24:08.806Z,1014.68
2016-07-15T10:25:08.796Z,1014.76
2016-07-15T10:26:08.785Z,1014.61
2016-07-15T10:27:08.776Z,1014.75
2016-07-15T10:28:08.765Z,1014.7
2016-07-15T10:29:08.756Z,1014.71
2016-07-15T10:30:08.744Z,1014.81
2016-07-15T10:31:08.734Z,1014.71
2016-07-15T10:32:08.724Z,1014.75
2016-07-15T10:33:08.713Z,1014.74
2016-07-15T10:34:08.705Z,1014.64
2016-07-15T10:35:08.694Z,1014.8
2016-07-15T10:36:08.684Z,1014.78
2016-07-15T10:37:08.673Z,1014.79
2016-07-15T10:38:08.662Z,1014.83
2016-07-15T10:39:08.652Z,1014.89
2016-07-15T10:40:08.642Z,1014.85
2016-07-15T10:41:08.630Z,1014.73
2016-07-15T10:42:08.618Z,1014.7
2016-07-15T10:43:08.689Z,1014.76
2016-07-15T10:44:08.595Z,1014.73
2016-07-15T10:45:08.582Z,1014.75
2016-07-15T10:46:08.572Z,1014.68
2016-07-15T10:47:08.559Z,1014.73
2016-07-15T10:48:08.548Z,1014.84
2016-07-15T10:49:08.536Z,1014.77
2016-07-15T10:50:08.522Z,1014.83
2016-07-15T10:51:08.512Z,1014.8
2016-07-15T10:52:08.497Z,1014.76
2016-07-15T10:53:08.485Z,1014.73
2016-07-15T10:54:08.473Z,1014.77
2016-07-15T10:55:08.458Z,1014.75
2016-07-15T10:56:08.447Z,1014.79
2016-07-15T10:57:08.434Z,1014.78
2016-07-15T10:58:08.419Z,1014.79
2016-07-15T10:59:08.407Z,1014.79
2016-07-15T11:00:08.395Z,1014.97
2016-07-15T11:01:08.381Z,1014.83
2016-07-15T11:02:08.370Z,1014.82
2016-07-15T11:03:08.365Z,1014.8
2016-07-15T11:04:08.345Z,1014.75
2016-07-15T11:05:08.333Z,1014.77
2016-07-15T11:06:08.321Z,1014.87
2016-07-15T11:07:08.310Z,1014.86
2016-07-15T11:08:08.298Z,1014.74
2016-07-15T11:09:08.288Z,1014.79
2016-07-15T11:10:08.277Z,1014.69
2016-07-15T11:11:08.267Z,1014.73
2016-07-15T11:12:08.257Z,1014.78
2016-07-15T11:13:08.246Z,1014.74
2016-07-15T11:14:08.236Z,1014.73
2016-07-15T11:15:08.224Z,1014.69
2016-07-15T11:16:08.216Z,1014.63
2016-07-15T11:17:08.205Z,1014.74
2016-07-15T11:18:08.195Z,1014.66
2016-07-15T11:19:08.188Z,1014.62
2016-07-15T11:20:08.180Z,1014.69
2016-07-15T11:21:08.169Z,1014.81
2016-07-15T11:22:08.162Z,1014.7
2016-07-15T11:23:08.154Z,1014.84
2016-07-15T11:24:08.147Z,1014.73
2016-07-15T11:25:08.138Z,1014.72
2016-07-15T11:26:08.132Z,1014.75
2016-07-15T11:27:08.124Z,1014.71
2016-07-15T11:28:08.114Z,1014.64
2016-07-15T11:29:08.105Z,1014.56
2016-07-15T11:30:08.097Z,1014.62
2016-07-15T11:31:08.100Z,1014.71
2016-07-15T11:32:08.077Z,1014.77
2016-07-15T11:33:08.071Z,1014.73
2016-07-15T11:34:08.061Z,1014.63
2016-07-15T11:35:08.062Z,1014.68
2016-07-15T11:36:08.043Z,1014.64
2016-07-15T11:37:08.034Z,1014.68
2016-07-15T11:38:08.026Z,1014.56
2016-07-15T11:39:08.017Z,1014.56
2016-07-15T11:40:08.010Z,1014.64
2016-07-15T11:41:08.002Z,1014.64
2016-07-15T11:42:07.992Z,1014.71
2016-07-15T11:43:07.985Z,1014.82
2016-07-15T11:44:07.975Z,1014.81
2016-07-15T11:45:07.967Z,1014.72
2016-07-15T11:46:07.957Z,1014.83
2016-07-15T11:47:07.947Z,1014.74
2016-07-15T11:48:07.936Z,1014.67
2016-07-15T11:49:07.928Z,1014.7
2016-07-15T11:50:07.916Z,1014.71
2016-07-15T11:51:07.906Z,1014.69
2016-07-15T11:52:07.896Z,1014.64
2016-07-15T11:53:07.888Z,1014.7
2016-07-15T11:54:07.876Z,1014.69
2016-07-15T11:55:07.866Z,1014.66
2016-07-15T11:56:07.859Z,1014.74
2016-07-15T11:57:07.850Z,1014.76
2016-07-15T11:58:07.842Z,1014.8
2016-07-15T11:59:07.835Z,1014.68
2016-07-15T12:00:07.827Z,1014.77
2016-07-15T12:01:07.819Z,1014.67
2016-07-15T12:02:07.812Z,1014.73
2016-07-15T12:03:07.806Z,1014.68
2016-07-15T12:04:07.797Z,1014.77
2016-07-15T12:05:07.791Z,1014.67
2016-07-15T12:06:07.782Z,1014.75
2016-07-15T12:07:07.775Z,1014.74
2016-07-15T12:08:07.767Z,1014.76